Brandon Municipal Airport

CYBR · 曼尼托巴, 加拿大

罗盘
风向 的 风向 340° Brandon Municipal Airport 8/26
风: 8 kt, 3 beaufort

3 kt

8 kt
改变
0 ft 2.000 4.000 6.000 8.000 10.000
Cloud Cloud Cloud Cloud Cloud Cloud Cloud Cloud
OVC 7.800
METAR CYBR 200700Z 34008KT 15SM OVC078 10/06 A2983 RMK AC8 SLP112

METAR Brandon Municipal Airport - CYBR/YBR

Brandon Municipal Airport是,加拿大中的中型机场。 该机场位于纬度49,90889和经度-99,94727。 该机场有2条跑道: 8/26 和 14/32. 本场的ICAO机场代码为CYBR。 该机场的IATA代码为YBR。 机场在Winnipeg FIR中。

该航空气象观测是针对Brandon Municipal Airport在2024年5月20日 02:00, 当地时间进行的。

机场观察

风向为340°,速度为8 kt。

可见度为15 mi。

有乌云密布在7.800 ft的高度。 破损或更高的上限为7.800 ft。

温度为10 °C,阵风为7 °C。 露点为6 °C,相对湿度为76%。 海平面上的气压为29,83 inHg (QNH)。

白天

今天,太阳从05:46升起,在21:26降落。 这适用于Brandon Municipal Airport,世界夏令时可能有所不同。 当地时间与世界标准时间之间的时差为-5 小时。 夏令时目前正在进行中。

公司介绍

我们没有关于这个机场的公司信息。

体会

到Vliegles.nl去找飞行课程,跳伞和其他飞行体验。 浏览页面,了解Brandon Municipal Airport附近所有可用的活动。 你也可以使用搜索功能来寻找你所在地附近的特定飞行课程、跳伞或其他飞行体验。

跑道

Id 标题 侧风 逆风 侧风 %
8/26 090°-270° 8 kt 3 kt 94 %
14/32 150°-330° 1 kt 8 kt 17 %

逆风成分最大的方向会被突出显示,并用于横风计算。 这并不一定意味着这个方向在使用。

乌云

7.800 ft OVC 乌云密布

温度 & 天气

温度 10 °C
露点 6 °C
相对湿度 76%
风寒 7 °C
Kp-index 2 (0-9)

评论

SLP112海平面压力为29,86 inHg (29,86 inHg)
AC8

白天

日出
05:46 (3:35)
中午
13:36
日落
21:26

小工具

你想在你的网站上有一个关于Brandon Municipal Airport的当前航空天气(METAR)的小部件吗?

显示HTML代码
报告变更